sensor_id;sensor_type;location;lat;lon;timestamp;pressure;altitude;pressure_sealevel;temperature;humidity
66396;BME280;53207;51.378;-1.342;2023-03-20T00:00:31;100483.34;;;20.00;36.08
66396;BME280;53207;51.378;-1.342;2023-03-20T00:03:00;100479.00;;;20.23;36.06
66396;BME280;53207;51.378;-1.342;2023-03-20T00:05:29;100473.67;;;19.80;36.25
66396;BME280;53207;51.378;-1.342;2023-03-20T00:07:57;100469.13;;;20.04;35.93
66396;BME280;53207;51.378;-1.342;2023-03-20T00:10:28;100469.27;;;19.93;36.01
66396;BME280;53207;51.378;-1.342;2023-03-20T00:12:56;100472.50;;;20.19;35.95
66396;BME280;53207;51.378;-1.342;2023-03-20T00:15:27;100469.38;;;20.20;35.88
66396;BME280;53207;51.378;-1.342;2023-03-20T00:17:56;100469.90;;;19.85;36.00
66396;BME280;53207;51.378;-1.342;2023-03-20T00:20:23;100468.78;;;20.19;35.83
66396;BME280;53207;51.378;-1.342;2023-03-20T00:22:51;100466.45;;;19.96;35.80
66396;BME280;53207;51.378;-1.342;2023-03-20T00:25:20;100469.74;;;20.13;35.85
66396;BME280;53207;51.378;-1.342;2023-03-20T00:27:48;100468.14;;;19.89;35.82
66396;BME280;53207;51.378;-1.342;2023-03-20T00:30:21;100468.02;;;20.00;35.92
66396;BME280;53207;51.378;-1.342;2023-03-20T00:32:49;100465.72;;;19.83;36.10
66396;BME280;53207;51.378;-1.342;2023-03-20T00:35:20;100465.85;;;19.96;35.96
66396;BME280;53207;51.378;-1.342;2023-03-20T00:37:47;100467.10;;;20.08;35.78
66396;BME280;53207;51.378;-1.342;2023-03-20T00:40:15;100466.71;;;19.81;35.79
66396;BME280;53207;51.378;-1.342;2023-03-20T00:42:43;100464.67;;;19.90;35.93
66396;BME280;53207;51.378;-1.342;2023-03-20T00:45:15;100457.00;;;19.61;35.99
66396;BME280;53207;51.378;-1.342;2023-03-20T00:47:43;100458.25;;;19.96;35.81
66396;BME280;53207;51.378;-1.342;2023-03-20T00:50:16;100461.45;;;19.99;35.75
66396;BME280;53207;51.378;-1.342;2023-03-20T00:52:44;100465.92;;;20.02;35.65
66396;BME280;53207;51.378;-1.342;2023-03-20T00:55:11;100468.94;;;19.91;35.78
66396;BME280;53207;51.378;-1.342;2023-03-20T00:57:42;100469.57;;;20.00;35.63
66396;BME280;53207;51.378;-1.342;2023-03-20T01:00:20;100472.73;;;19.96;35.67
66396;BME280;53207;51.378;-1.342;2023-03-20T01:02:48;100466.99;;;19.63;36.00
66396;BME280;53207;51.378;-1.342;2023-03-20T01:05:15;100460.62;;;19.94;35.62
66396;BME280;53207;51.378;-1.342;2023-03-20T01:07:43;100452.21;;;19.76;35.82
66396;BME280;53207;51.378;-1.342;2023-03-20T01:10:10;100449.10;;;19.78;35.75
66396;BME280;53207;51.378;-1.342;2023-03-20T01:12:38;100445.11;;;19.76;35.79
66396;BME280;53207;51.378;-1.342;2023-03-20T01:15:16;100441.98;;;19.84;35.67
66396;BME280;53207;51.378;-1.342;2023-03-20T01:17:44;100441.98;;;19.81;35.67
66396;BME280;53207;51.378;-1.342;2023-03-20T01:20:16;100436.33;;;19.78;35.68
66396;BME280;53207;51.378;-1.342;2023-03-20T01:22:43;100431.32;;;20.01;35.68
66396;BME280;53207;51.378;-1.342;2023-03-20T01:25:10;100428.36;;;19.99;35.71
66396;BME280;53207;51.378;-1.342;2023-03-20T01:27:38;100434.95;;;19.82;35.60
66396;BME280;53207;51.378;-1.342;2023-03-20T01:30:15;100435.50;;;20.02;35.61
66396;BME280;53207;51.378;-1.342;2023-03-20T01:32:43;100428.82;;;19.73;35.63
66396;BME280;53207;51.378;-1.342;2023-03-20T01:35:11;100428.51;;;19.52;35.87
66396;BME280;53207;51.378;-1.342;2023-03-20T01:37:39;100429.39;;;19.69;35.66
66396;BME280;53207;51.378;-1.342;2023-03-20T01:40:17;100423.61;;;19.68;35.75
66396;BME280;53207;51.378;-1.342;2023-03-20T01:42:48;100420.81;;;19.77;35.67
66396;BME280;53207;51.378;-1.342;2023-03-20T01:45:19;100419.70;;;19.98;35.78
66396;BME280;53207;51.378;-1.342;2023-03-20T01:47:48;100418.81;;;19.64;35.90
66396;BME280;53207;51.378;-1.342;2023-03-20T01:50:26;100416.39;;;19.74;35.77
66396;BME280;53207;51.378;-1.342;2023-03-20T01:52:59;100413.49;;;19.70;35.83
66396;BME280;53207;51.378;-1.342;2023-03-20T01:55:29;100408.12;;;19.73;35.82
66396;BME280;53207;51.378;-1.342;2023-03-20T01:57:59;100404.42;;;19.85;35.97
66396;BME280;53207;51.378;-1.342;2023-03-20T02:00:28;100403.37;;;19.37;36.21
66396;BME280;53207;51.378;-1.342;2023-03-20T02:02:56;100401.78;;;19.62;35.88
66396;BME280;53207;51.378;-1.342;2023-03-20T02:05:23;100401.34;;;19.94;35.81
66396;BME280;53207;51.378;-1.342;2023-03-20T02:08:04;100403.86;;;19.59;35.91
66396;BME280;53207;51.378;-1.342;2023-03-20T02:10:36;100398.44;;;19.47;36.01
66396;BME280;53207;51.378;-1.342;2023-03-20T02:13:04;100398.43;;;19.88;35.84
66396;BME280;53207;51.378;-1.342;2023-03-20T02:15:32;100394.62;;;19.52;35.93
66396;BME280;53207;51.378;-1.342;2023-03-20T02:18:00;100393.70;;;19.77;35.94
66396;BME280;53207;51.378;-1.342;2023-03-20T02:20:36;100391.88;;;19.52;35.91
66396;BME280;53207;51.378;-1.342;2023-03-20T02:23:34;100388.38;;;19.47;35.94
66396;BME280;53207;51.378;-1.342;2023-03-20T02:26:23;100376.72;;;19.57;35.80
66396;BME280;53207;51.378;-1.342;2023-03-20T02:29:12;100366.24;;;19.40;35.96
66396;BME280;53207;51.378;-1.342;2023-03-20T02:32:09;100364.81;;;19.74;35.85
66396;BME280;53207;51.378;-1.342;2023-03-20T02:37:19;100370.59;;;20.06;35.98
66396;BME280;53207;51.378;-1.342;2023-03-20T02:40:00;100367.32;;;19.42;35.85
66396;BME280;53207;51.378;-1.342;2023-03-20T02:42:33;100368.43;;;19.47;35.77
66396;BME280;53207;51.378;-1.342;2023-03-20T02:45:11;100365.44;;;19.38;35.86
66396;BME280;53207;51.378;-1.342;2023-03-20T02:47:46;100371.42;;;19.43;35.74
66396;BME280;53207;51.378;-1.342;2023-03-20T02:50:17;100368.68;;;19.64;35.81
66396;BME280;53207;51.378;-1.342;2023-03-20T02:52:53;100364.94;;;19.59;35.83
66396;BME280;53207;51.378;-1.342;2023-03-20T02:55:30;100359.15;;;19.44;35.69
66396;BME280;53207;51.378;-1.342;2023-03-20T02:58:05;100349.34;;;19.34;35.77
66396;BME280;53207;51.378;-1.342;2023-03-20T03:00:38;100349.69;;;19.56;35.82
66396;BME280;53207;51.378;-1.342;2023-03-20T03:03:10;100358.06;;;19.26;35.84
66396;BME280;53207;51.378;-1.342;2023-03-20T03:05:42;100359.75;;;19.28;35.80
66396;BME280;53207;51.378;-1.342;2023-03-20T03:08:15;100361.10;;;19.78;35.76
66396;BME280;53207;51.378;-1.342;2023-03-20T03:10:48;100354.94;;;19.29;35.74
66396;BME280;53207;51.378;-1.342;2023-03-20T03:13:20;100349.61;;;19.68;35.83
66396;BME280;53207;51.378;-1.342;2023-03-20T03:15:51;100339.24;;;19.76;35.71
66396;BME280;53207;51.378;-1.342;2023-03-20T03:18:23;100338.33;;;19.51;35.73
66396;BME280;53207;51.378;-1.342;2023-03-20T03:20:56;100337.87;;;19.53;35.68
66396;BME280;53207;51.378;-1.342;2023-03-20T03:23:27;100342.81;;;19.49;35.70
66396;BME280;53207;51.378;-1.342;2023-03-20T03:25:55;100339.43;;;19.24;35.68
66396;BME280;53207;51.378;-1.342;2023-03-20T03:28:27;100335.04;;;19.47;35.73
66396;BME280;53207;51.378;-1.342;2023-03-20T03:30:56;100330.49;;;19.72;35.63
66396;BME280;53207;51.378;-1.342;2023-03-20T03:33:28;100330.20;;;19.69;35.65
66396;BME280;53207;51.378;-1.342;2023-03-20T03:36:02;100325.56;;;19.64;35.72
66396;BME280;53207;51.378;-1.342;2023-03-20T03:38:38;100332.00;;;19.11;35.77
66396;BME280;53207;51.378;-1.342;2023-03-20T03:41:19;100326.66;;;19.07;35.77
66396;BME280;53207;51.378;-1.342;2023-03-20T03:43:52;100320.38;;;19.13;35.69
66396;BME280;53207;51.378;-1.342;2023-03-20T03:46:26;100322.60;;;19.45;35.60
66396;BME280;53207;51.378;-1.342;2023-03-20T03:48:55;100325.21;;;19.14;35.64
66396;BME280;53207;51.378;-1.342;2023-03-20T03:51:25;100320.76;;;19.19;35.55
66396;BME280;53207;51.378;-1.342;2023-03-20T03:53:59;100327.16;;;19.33;35.70
66396;BME280;53207;51.378;-1.342;2023-03-20T03:56:31;100323.59;;;19.36;35.62
66396;BME280;53207;51.378;-1.342;2023-03-20T03:59:02;100319.74;;;19.63;35.58
66396;BME280;53207;51.378;-1.342;2023-03-20T04:01:32;100321.11;;;19.29;35.70
66396;BME280;53207;51.378;-1.342;2023-03-20T04:04:03;100324.79;;;19.59;35.58
66396;BME280;53207;51.378;-1.342;2023-03-20T04:06:32;100318.27;;;19.60;35.55
66396;BME280;53207;51.378;-1.342;2023-03-20T04:08:59;100322.87;;;19.54;35.60
66396;BME280;53207;51.378;-1.342;2023-03-20T04:11:27;100320.59;;;19.32;35.58
66396;BME280;53207;51.378;-1.342;2023-03-20T04:13:54;100325.30;;;19.44;35.72
66396;BME280;53207;51.378;-1.342;2023-03-20T04:16:23;100324.26;;;19.45;35.70
66396;BME280;53207;51.378;-1.342;2023-03-20T04:18:50;100318.76;;;19.28;35.61
66396;BME280;53207;51.378;-1.342;2023-03-20T04:21:18;100318.80;;;19.50;35.60
66396;BME280;53207;51.378;-1.342;2023-03-20T04:23:45;100317.05;;;19.41;35.70
66396;BME280;53207;51.378;-1.342;2023-03-20T04:26:12;100319.56;;;19.19;35.69
66396;BME280;53207;51.378;-1.342;2023-03-20T04:28:40;100319.75;;;19.12;35.99
66396;BME280;53207;51.378;-1.342;2023-03-20T04:31:07;100308.08;;;19.37;35.71
66396;BME280;53207;51.378;-1.342;2023-03-20T04:33:34;100307.80;;;19.22;35.86
66396;BME280;53207;51.378;-1.342;2023-03-20T04:36:02;100303.02;;;18.93;35.94
66396;BME280;53207;51.378;-1.342;2023-03-20T04:38:30;100294.23;;;19.23;35.84
66396;BME280;53207;51.378;-1.342;2023-03-20T04:40:57;100295.83;;;18.98;36.17
66396;BME280;53207;51.378;-1.342;2023-03-20T04:43:24;100294.25;;;19.14;35.93
66396;BME280;53207;51.378;-1.342;2023-03-20T04:45:52;100293.78;;;19.10;36.00
66396;BME280;53207;51.378;-1.342;2023-03-20T04:48:19;100287.01;;;19.17;35.89
66396;BME280;53207;51.378;-1.342;2023-03-20T04:50:46;100291.98;;;19.40;35.94
66396;BME280;53207;51.378;-1.342;2023-03-20T04:53:14;100296.64;;;18.97;36.11
66396;BME280;53207;51.378;-1.342;2023-03-20T04:55:42;100296.74;;;19.15;35.89
66396;BME280;53207;51.378;-1.342;2023-03-20T04:58:10;100288.37;;;19.11;35.93
66396;BME280;53207;51.378;-1.342;2023-03-20T05:00:37;100287.40;;;19.07;35.96
66396;BME280;53207;51.378;-1.342;2023-03-20T05:03:04;100284.59;;;19.06;35.97
66396;BME280;53207;51.378;-1.342;2023-03-20T05:05:32;100284.45;;;19.13;35.87
66396;BME280;53207;51.378;-1.342;2023-03-20T05:07:59;100284.32;;;18.99;36.09
66396;BME280;53207;51.378;-1.342;2023-03-20T05:10:26;100283.32;;;19.11;35.88
66396;BME280;53207;51.378;-1.342;2023-03-20T05:12:54;100281.53;;;19.10;35.90
66396;BME280;53207;51.378;-1.342;2023-03-20T05:15:21;100282.82;;;19.06;35.94
66396;BME280;53207;51.378;-1.342;2023-03-20T05:17:48;100280.43;;;18.98;36.02
66396;BME280;53207;51.378;-1.342;2023-03-20T05:20:16;100278.58;;;19.11;35.83
66396;BME280;53207;51.378;-1.342;2023-03-20T05:22:43;100277.42;;;19.05;35.93
66396;BME280;53207;51.378;-1.342;2023-03-20T05:25:10;100278.08;;;18.98;35.99
66396;BME280;53207;51.378;-1.342;2023-03-20T05:27:38;100279.82;;;19.02;35.93
66396;BME280;53207;51.378;-1.342;2023-03-20T05:30:06;100281.47;;;19.02;35.91
66396;BME280;53207;51.378;-1.342;2023-03-20T05:32:33;100283.43;;;18.99;35.94
66396;BME280;53207;51.378;-1.342;2023-03-20T05:35:00;100283.11;;;19.01;35.90
66396;BME280;53207;51.378;-1.342;2023-03-20T05:37:28;100281.03;;;18.99;35.89
66396;BME280;53207;51.378;-1.342;2023-03-20T05:39:55;100285.37;;;18.96;35.93
66396;BME280;53207;51.378;-1.342;2023-03-20T05:42:22;100285.17;;;18.96;35.92
66396;BME280;53207;51.378;-1.342;2023-03-20T05:44:49;100287.52;;;18.92;35.97
66396;BME280;53207;51.378;-1.342;2023-03-20T05:47:17;100291.32;;;18.87;36.03
66396;BME280;53207;51.378;-1.342;2023-03-20T05:49:44;100290.07;;;18.82;36.08
66396;BME280;53207;51.378;-1.342;2023-03-20T05:52:11;100290.76;;;18.92;35.95
66396;BME280;53207;51.378;-1.342;2023-03-20T05:54:39;100294.04;;;18.95;35.89
66396;BME280;53207;51.378;-1.342;2023-03-20T05:57:06;100297.35;;;18.91;35.94
66396;BME280;53207;51.378;-1.342;2023-03-20T05:59:33;100294.59;;;18.92;35.93
66396;BME280;53207;51.378;-1.342;2023-03-20T06:02:01;100294.13;;;18.92;35.95
66396;BME280;53207;51.378;-1.342;2023-03-20T06:04:28;100291.66;;;18.71;36.18
66396;BME280;53207;51.378;-1.342;2023-03-20T06:06:55;100291.30;;;18.64;36.26
66396;BME280;53207;51.378;-1.342;2023-03-20T06:09:23;100291.67;;;18.86;35.98
66396;BME280;53207;51.378;-1.342;2023-03-20T06:11:50;100287.21;;;18.79;36.08
66396;BME280;53207;51.378;-1.342;2023-03-20T06:14:17;100284.49;;;19.07;36.04
66396;BME280;53207;51.378;-1.342;2023-03-20T06:16:44;100285.80;;;18.76;36.08
66396;BME280;53207;51.378;-1.342;2023-03-20T06:19:12;100289.57;;;18.84;35.96
66396;BME280;53207;51.378;-1.342;2023-03-20T06:21:39;100284.30;;;18.50;36.41
66396;BME280;53207;51.378;-1.342;2023-03-20T06:24:06;100283.95;;;18.76;36.08
66396;BME280;53207;51.378;-1.342;2023-03-20T06:26:34;100280.47;;;18.76;36.06
66396;BME280;53207;51.378;-1.342;2023-03-20T06:29:01;100280.98;;;18.77;36.04
66396;BME280;53207;51.378;-1.342;2023-03-20T06:31:28;100280.76;;;18.78;36.01
66396;BME280;53207;51.378;-1.342;2023-03-20T06:33:56;100283.08;;;18.75;36.07
66396;BME280;53207;51.378;-1.342;2023-03-20T06:36:23;100282.15;;;18.90;35.85
66396;BME280;53207;51.378;-1.342;2023-03-20T06:38:50;100280.70;;;18.90;35.88
66396;BME280;53207;51.378;-1.342;2023-03-20T06:41:18;100288.04;;;18.93;35.90
66396;BME280;53207;51.378;-1.342;2023-03-20T06:43:45;100289.90;;;19.06;35.86
66396;BME280;53207;51.378;-1.342;2023-03-20T06:46:12;100285.83;;;19.18;35.86
66396;BME280;53207;51.378;-1.342;2023-03-20T06:48:40;100287.10;;;19.26;35.97
66396;BME280;53207;51.378;-1.342;2023-03-20T06:51:07;100287.94;;;19.39;35.98
66396;BME280;53207;51.378;-1.342;2023-03-20T06:53:34;100290.17;;;19.48;35.94
66396;BME280;53207;51.378;-1.342;2023-03-20T06:56:02;100289.32;;;19.60;35.90
66396;BME280;53207;51.378;-1.342;2023-03-20T06:58:29;100289.73;;;19.71;35.86
66396;BME280;53207;51.378;-1.342;2023-03-20T07:00:56;100294.67;;;19.81;35.83
66396;BME280;53207;51.378;-1.342;2023-03-20T07:03:23;100294.69;;;19.73;35.75
66396;BME280;53207;51.378;-1.342;2023-03-20T07:05:51;100293.61;;;19.83;35.69
66396;BME280;53207;51.378;-1.342;2023-03-20T07:08:18;100296.98;;;19.67;35.63
66396;BME280;53207;51.378;-1.342;2023-03-20T07:10:45;100301.38;;;19.81;35.60
66396;BME280;53207;51.378;-1.342;2023-03-20T07:13:13;100305.50;;;20.13;35.54
66396;BME280;53207;51.378;-1.342;2023-03-20T07:15:41;100311.60;;;19.94;35.43
66396;BME280;53207;51.378;-1.342;2023-03-20T07:18:08;100310.86;;;20.50;35.37
66396;BME280;53207;51.378;-1.342;2023-03-20T07:20:35;100311.38;;;20.56;35.31
66396;BME280;53207;51.378;-1.342;2023-03-20T07:23:03;100310.82;;;20.15;35.27
66396;BME280;53207;51.378;-1.342;2023-03-20T07:25:30;100311.67;;;20.45;35.23
66396;BME280;53207;51.378;-1.342;2023-03-20T07:27:57;100314.30;;;20.30;35.13
66396;BME280;53207;51.378;-1.342;2023-03-20T07:30:25;100313.63;;;20.36;35.05
66396;BME280;53207;51.378;-1.342;2023-03-20T07:32:52;100315.49;;;20.36;35.04
66396;BME280;53207;51.378;-1.342;2023-03-20T07:35:19;100316.97;;;20.38;35.04
66396;BME280;53207;51.378;-1.342;2023-03-20T07:37:46;100320.03;;;20.43;34.98
66396;BME280;53207;51.378;-1.342;2023-03-20T07:40:14;100318.62;;;20.43;34.99
66396;BME280;53207;51.378;-1.342;2023-03-20T07:42:41;100317.24;;;20.44;35.08
66396;BME280;53207;51.378;-1.342;2023-03-20T07:45:09;100308.10;;;20.45;35.05
66396;BME280;53207;51.378;-1.342;2023-03-20T07:47:37;100303.30;;;20.52;34.93
66396;BME280;53207;51.378;-1.342;2023-03-20T07:50:05;100298.19;;;20.53;34.90
66396;BME280;53207;51.378;-1.342;2023-03-20T07:52:32;100300.27;;;20.52;34.93
66396;BME280;53207;51.378;-1.342;2023-03-20T07:54:59;100303.25;;;20.46;34.99
66396;BME280;53207;51.378;-1.342;2023-03-20T07:57:27;100300.78;;;20.39;35.14
66396;BME280;53207;51.378;-1.342;2023-03-20T07:59:54;100304.12;;;20.23;35.10
66396;BME280;53207;51.378;-1.342;2023-03-20T08:02:21;100305.88;;;20.42;35.15
66396;BME280;53207;51.378;-1.342;2023-03-20T08:04:48;100305.77;;;20.35;35.00
66396;BME280;53207;51.378;-1.342;2023-03-20T08:07:15;100303.62;;;20.60;34.98
66396;BME280;53207;51.378;-1.342;2023-03-20T08:09:43;100303.37;;;20.38;34.97
66396;BME280;53207;51.378;-1.342;2023-03-20T08:12:10;100306.76;;;20.61;35.02
66396;BME280;53207;51.378;-1.342;2023-03-20T08:14:37;100312.11;;;20.61;35.15
66396;BME280;53207;51.378;-1.342;2023-03-20T08:17:05;100316.24;;;20.36;35.17
66396;BME280;53207;51.378;-1.342;2023-03-20T08:19:32;100323.15;;;20.59;35.21
66396;BME280;53207;51.378;-1.342;2023-03-20T08:21:59;100323.34;;;20.36;35.25
66396;BME280;53207;51.378;-1.342;2023-03-20T08:24:27;100320.59;;;20.55;35.34
66396;BME280;53207;51.378;-1.342;2023-03-20T08:26:54;100326.45;;;20.56;35.43
66396;BME280;53207;51.378;-1.342;2023-03-20T08:29:21;100322.10;;;20.62;35.44
66396;BME280;53207;51.378;-1.342;2023-03-20T08:31:48;100323.81;;;20.60;35.60
66396;BME280;53207;51.378;-1.342;2023-03-20T08:34:16;100315.50;;;20.18;35.60
66396;BME280;53207;51.378;-1.342;2023-03-20T08:36:43;100318.21;;;20.61;35.67
66396;BME280;53207;51.378;-1.342;2023-03-20T08:39:10;100317.19;;;20.64;35.61
66396;BME280;53207;51.378;-1.342;2023-03-20T08:41:38;100320.53;;;20.21;35.54
66396;BME280;53207;51.378;-1.342;2023-03-20T08:44:06;100324.41;;;20.61;35.56
66396;BME280;53207;51.378;-1.342;2023-03-20T08:46:33;100319.89;;;20.63;35.55
66396;BME280;53207;51.378;-1.342;2023-03-20T08:49:00;100320.31;;;20.38;35.59
66396;BME280;53207;51.378;-1.342;2023-03-20T08:51:28;100317.25;;;20.61;35.63
66396;BME280;53207;51.378;-1.342;2023-03-20T08:53:55;100311.29;;;20.59;35.62
66396;BME280;53207;51.378;-1.342;2023-03-20T08:56:22;100311.31;;;20.53;35.69
66396;BME280;53207;51.378;-1.342;2023-03-20T08:58:50;100316.91;;;20.30;35.69
66396;BME280;53207;51.378;-1.342;2023-03-20T09:01:16;100316.07;;;20.55;35.62
66396;BME280;53207;51.378;-1.342;2023-03-20T09:03:44;100314.88;;;20.55;35.55
66396;BME280;53207;51.378;-1.342;2023-03-20T09:06:11;100316.70;;;20.31;35.55
66396;BME280;53207;51.378;-1.342;2023-03-20T09:08:38;100317.22;;;20.50;35.65
66396;BME280;53207;51.378;-1.342;2023-03-20T09:11:06;100319.41;;;20.24;35.80
66396;BME280;53207;51.378;-1.342;2023-03-20T09:13:33;100321.11;;;20.22;35.84
66396;BME280;53207;51.378;-1.342;2023-03-20T09:16:01;100321.04;;;20.40;35.96
66396;BME280;53207;51.378;-1.342;2023-03-20T09:18:28;100321.68;;;20.38;35.98
66396;BME280;53207;51.378;-1.342;2023-03-20T09:20:55;100321.92;;;20.13;36.01
66396;BME280;53207;51.378;-1.342;2023-03-20T09:23:23;100324.36;;;20.32;36.08
66396;BME280;53207;51.378;-1.342;2023-03-20T09:25:50;100323.21;;;20.34;36.02
66396;BME280;53207;51.378;-1.342;2023-03-20T09:28:17;100316.57;;;20.31;36.08
66396;BME280;53207;51.378;-1.342;2023-03-20T09:30:44;100318.51;;;20.06;36.06
66396;BME280;53207;51.378;-1.342;2023-03-20T09:33:12;100317.30;;;20.31;35.94
66396;BME280;53207;51.378;-1.342;2023-03-20T09:35:39;100318.44;;;20.28;36.00
66396;BME280;53207;51.378;-1.342;2023-03-20T09:38:06;100323.38;;;20.25;35.98
66396;BME280;53207;51.378;-1.342;2023-03-20T09:40:44;100323.69;;;20.54;35.94
66396;BME280;53207;51.378;-1.342;2023-03-20T09:43:24;100323.44;;;20.22;35.97
66396;BME280;53207;51.378;-1.342;2023-03-20T09:46:00;100325.75;;;20.24;35.93
66396;BME280;53207;51.378;-1.342;2023-03-20T09:48:37;100327.75;;;20.24;35.91
66396;BME280;53207;51.378;-1.342;2023-03-20T09:51:12;100329.90;;;20.26;35.87
66396;BME280;53207;51.378;-1.342;2023-03-20T09:53:46;100333.69;;;20.15;36.01
66396;BME280;53207;51.378;-1.342;2023-03-20T09:56:18;100334.43;;;20.46;35.98
66396;BME280;53207;51.378;-1.342;2023-03-20T09:58:52;100332.81;;;20.17;36.01
66396;BME280;53207;51.378;-1.342;2023-03-20T10:01:21;100331.95;;;20.09;36.13
66396;BME280;53207;51.378;-1.342;2023-03-20T10:03:52;100326.18;;;20.13;36.10
66396;BME280;53207;51.378;-1.342;2023-03-20T10:06:20;100327.09;;;19.98;36.30
66396;BME280;53207;51.378;-1.342;2023-03-20T10:08:47;100321.27;;;20.18;36.04
66396;BME280;53207;51.378;-1.342;2023-03-20T10:11:31;100322.43;;;20.08;36.19
66396;BME280;53207;51.378;-1.342;2023-03-20T10:14:10;100322.65;;;20.13;36.12
66396;BME280;53207;51.378;-1.342;2023-03-20T10:16:47;100323.50;;;20.11;36.11
66396;BME280;53207;51.378;-1.342;2023-03-20T10:19:22;100324.10;;;20.16;36.02
66396;BME280;53207;51.378;-1.342;2023-03-20T10:21:56;100327.06;;;19.99;36.26
66396;BME280;53207;51.378;-1.342;2023-03-20T10:24:29;100324.63;;;20.14;36.10
66396;BME280;53207;51.378;-1.342;2023-03-20T10:27:03;100328.10;;;20.16;36.03
66396;BME280;53207;51.378;-1.342;2023-03-20T10:29:39;100325.10;;;20.05;36.18
66396;BME280;53207;51.378;-1.342;2023-03-20T10:32:13;100323.57;;;20.11;36.11
66396;BME280;53207;51.378;-1.342;2023-03-20T10:34:52;100325.62;;;20.19;36.00
66396;BME280;53207;51.378;-1.342;2023-03-20T10:37:31;100321.86;;;19.88;36.14
66396;BME280;53207;51.378;-1.342;2023-03-20T10:40:18;100325.69;;;20.13;36.11
66396;BME280;53207;51.378;-1.342;2023-03-20T10:42:50;100328.80;;;20.09;36.22
66396;BME280;53207;51.378;-1.342;2023-03-20T10:45:29;100325.53;;;20.04;36.23
66396;BME280;53207;51.378;-1.342;2023-03-20T10:47:59;100327.48;;;20.02;36.26
66396;BME280;53207;51.378;-1.342;2023-03-20T10:50:31;100332.61;;;19.96;36.32
66396;BME280;53207;51.378;-1.342;2023-03-20T10:53:00;100333.52;;;20.03;36.24
66396;BME280;53207;51.378;-1.342;2023-03-20T10:55:30;100333.85;;;20.00;36.25
66396;BME280;53207;51.378;-1.342;2023-03-20T10:58:05;100335.19;;;19.90;36.38
66396;BME280;53207;51.378;-1.342;2023-03-20T11:00:36;100335.74;;;20.00;36.21
66396;BME280;53207;51.378;-1.342;2023-03-20T11:03:04;100334.53;;;20.00;36.19
66396;BME280;53207;51.378;-1.342;2023-03-20T11:05:34;100336.87;;;19.90;36.30
66396;BME280;53207;51.378;-1.342;2023-03-20T11:08:04;100334.20;;;19.95;36.28
66396;BME280;53207;51.378;-1.342;2023-03-20T11:10:33;100332.64;;;19.97;36.24
66396;BME280;53207;51.378;-1.342;2023-03-20T11:13:14;100326.57;;;20.10;36.42
66396;BME280;53207;51.378;-1.342;2023-03-20T11:15:41;100322.32;;;19.88;36.34
66396;BME280;53207;51.378;-1.342;2023-03-20T11:18:11;100324.70;;;19.82;36.40
66396;BME280;53207;51.378;-1.342;2023-03-20T11:20:44;100316.28;;;20.22;36.21
66396;BME280;53207;51.378;-1.342;2023-03-20T11:23:15;100313.30;;;19.90;36.28
66396;BME280;53207;51.378;-1.342;2023-03-20T11:25:49;100313.32;;;19.97;36.21
66396;BME280;53207;51.378;-1.342;2023-03-20T11:28:20;100311.04;;;20.17;36.29
66396;BME280;53207;51.378;-1.342;2023-03-20T11:30:57;100314.42;;;19.85;36.36
66396;BME280;53207;51.378;-1.342;2023-03-20T11:33:26;100313.29;;;19.82;36.37
66396;BME280;53207;51.378;-1.342;2023-03-20T11:35:56;100317.09;;;19.83;36.36
66396;BME280;53207;51.378;-1.342;2023-03-20T11:38:24;100318.55;;;20.08;36.34
66396;BME280;53207;51.378;-1.342;2023-03-20T11:40:52;100316.54;;;19.84;36.33
66396;BME280;53207;51.378;-1.342;2023-03-20T11:43:23;100317.98;;;20.08;36.35
66396;BME280;53207;51.378;-1.342;2023-03-20T11:45:54;100314.66;;;19.96;36.54
66396;BME280;53207;51.378;-1.342;2023-03-20T11:48:24;100316.83;;;20.05;36.39
66396;BME280;53207;51.378;-1.342;2023-03-20T11:50:58;100316.35;;;19.85;36.30
66396;BME280;53207;51.378;-1.342;2023-03-20T11:53:31;100311.63;;;19.72;36.49
66396;BME280;53207;51.378;-1.342;2023-03-20T11:56:05;100308.87;;;19.65;36.55
66396;BME280;53207;51.378;-1.342;2023-03-20T11:58:36;100307.93;;;19.73;36.53
66396;BME280;53207;51.378;-1.342;2023-03-20T12:01:07;100303.57;;;19.51;36.89
66396;BME280;53207;51.378;-1.342;2023-03-20T12:03:42;100299.30;;;19.98;37.01
66396;BME280;53207;51.378;-1.342;2023-03-20T12:06:14;100294.25;;;19.31;37.28
66396;BME280;53207;51.378;-1.342;2023-03-20T12:08:47;100289.96;;;19.57;37.34
66396;BME280;53207;51.378;-1.342;2023-03-20T12:11:37;100290.09;;;19.27;37.38
66396;BME280;53207;51.378;-1.342;2023-03-20T12:14:15;100287.85;;;19.38;37.35
66396;BME280;53207;51.378;-1.342;2023-03-20T12:16:45;100290.98;;;19.88;37.42
66396;BME280;53207;51.378;-1.342;2023-03-20T12:19:19;100288.43;;;19.73;37.63
66396;BME280;53207;51.378;-1.342;2023-03-20T12:21:53;100288.74;;;19.48;37.66
66396;BME280;53207;51.378;-1.342;2023-03-20T12:24:28;100290.93;;;19.72;37.54
66396;BME280;53207;51.378;-1.342;2023-03-20T12:27:16;100292.07;;;19.58;37.51
66396;BME280;53207;51.378;-1.342;2023-03-20T12:29:49;100288.57;;;19.30;37.61
66396;BME280;53207;51.378;-1.342;2023-03-20T12:32:23;100289.22;;;19.46;37.77
66396;BME280;53207;51.378;-1.342;2023-03-20T12:34:56;100285.27;;;19.50;37.63
66396;BME280;53207;51.378;-1.342;2023-03-20T12:37:25;100281.54;;;19.51;38.07
66396;BME280;53207;51.378;-1.342;2023-03-20T12:39:54;100285.78;;;19.49;38.18
66396;BME280;53207;51.378;-1.342;2023-03-20T12:42:33;100291.95;;;19.53;38.04
66396;BME280;53207;51.378;-1.342;2023-03-20T12:45:10;100292.44;;;19.10;38.02
66396;BME280;53207;51.378;-1.342;2023-03-20T12:47:51;100291.24;;;19.56;38.09
66396;BME280;53207;51.378;-1.342;2023-03-20T12:50:27;100285.23;;;19.52;38.06
66396;BME280;53207;51.378;-1.342;2023-03-20T12:53:08;100281.95;;;19.34;38.00
66396;BME280;53207;51.378;-1.342;2023-03-20T12:55:43;100274.37;;;19.41;38.07
66396;BME280;53207;51.378;-1.342;2023-03-20T12:58:24;100272.93;;;19.15;38.00